createdAt,value
2018-08-03T00:01:26.925Z,9.98
2018-08-03T00:03:54.165Z,11.30
2018-08-03T00:06:24.630Z,10.80
2018-08-03T00:08:51.960Z,10.45
2018-08-03T00:11:19.128Z,10.23
2018-08-03T00:13:46.287Z,10.28
2018-08-03T00:16:13.477Z,10.90
2018-08-03T00:18:40.657Z,11.08
2018-08-03T00:21:08.009Z,11.22
2018-08-03T00:23:35.180Z,9.90
2018-08-03T00:26:02.357Z,10.15
2018-08-03T00:28:29.528Z,9.55
2018-08-03T00:30:56.708Z,11.43
2018-08-03T00:33:23.872Z,10.60
2018-08-03T00:35:51.033Z,10.88
2018-08-03T00:38:18.321Z,11.08
2018-08-03T00:40:45.497Z,11.03
2018-08-03T00:43:12.664Z,12.00
2018-08-03T00:45:39.848Z,12.18
2018-08-03T00:48:07.007Z,11.45
2018-08-03T00:50:34.192Z,12.33
2018-08-03T00:53:01.361Z,13.18
2018-08-03T00:55:28.536Z,14.07
2018-08-03T00:57:55.716Z,13.10
2018-08-03T01:00:22.881Z,13.15
2018-08-03T01:02:50.059Z,11.75
2018-08-03T01:05:17.246Z,11.80
2018-08-03T01:07:44.512Z,14.43
2018-08-03T01:10:11.680Z,11.78
2018-08-03T01:12:38.866Z,12.05
2018-08-03T01:15:06.192Z,12.90
2018-08-03T01:17:33.373Z,12.78
2018-08-03T01:20:00.535Z,12.78
2018-08-03T01:22:27.735Z,12.05
2018-08-03T01:24:55.020Z,11.40
2018-08-03T01:27:22.185Z,10.82
2018-08-03T01:29:49.363Z,11.60
2018-08-03T01:32:16.532Z,10.13
2018-08-03T01:34:43.701Z,8.90
2018-08-03T01:37:10.900Z,11.05
2018-08-03T01:39:38.057Z,9.63
2018-08-03T01:42:05.211Z,9.35
2018-08-03T01:44:32.380Z,11.75
2018-08-03T01:46:59.541Z,10.88
2018-08-03T01:49:26.728Z,10.85
2018-08-03T01:51:53.875Z,10.10
2018-08-03T01:54:21.045Z,9.65
2018-08-03T01:56:48.212Z,9.75
2018-08-03T01:59:15.393Z,10.45
2018-08-03T02:01:42.564Z,10.23
2018-08-03T02:04:09.728Z,10.08
2018-08-03T02:06:36.892Z,9.85
2018-08-03T02:09:05.953Z,10.78
2018-08-03T02:11:33.104Z,9.65
2018-08-03T02:14:00.276Z,9.73
2018-08-03T02:16:27.477Z,10.20
2018-08-03T02:18:54.635Z,9.18
2018-08-03T02:21:21.783Z,9.70
2018-08-03T02:23:48.956Z,9.80
2018-08-03T02:26:16.111Z,10.45
2018-08-03T02:28:43.327Z,9.85
2018-08-03T02:31:10.493Z,8.95
2018-08-03T02:33:37.646Z,9.30
2018-08-03T02:36:04.813Z,10.82
2018-08-03T02:38:31.991Z,10.20
2018-08-03T02:40:59.182Z,10.48
2018-08-03T02:43:26.565Z,8.95
2018-08-03T02:45:53.739Z,10.28
2018-08-03T02:48:20.899Z,9.85
2018-08-03T02:50:48.186Z,10.68
2018-08-03T02:53:15.348Z,9.45
2018-08-03T02:55:42.589Z,10.32
2018-08-03T02:58:09.850Z,9.50
2018-08-03T03:00:37.148Z,10.75
2018-08-03T03:03:04.308Z,10.30
2018-08-03T03:05:31.476Z,9.73
2018-08-03T03:07:58.655Z,9.35
2018-08-03T03:10:25.826Z,9.78
2018-08-03T03:12:53.068Z,9.80
2018-08-03T03:15:20.243Z,10.28
2018-08-03T03:17:47.421Z,11.55
2018-08-03T03:20:14.598Z,10.32
2018-08-03T03:22:41.928Z,10.18
2018-08-03T03:25:09.139Z,10.70
2018-08-03T03:27:36.300Z,10.78
2018-08-03T03:30:03.653Z,10.63
2018-08-03T03:32:30.834Z,11.25
2018-08-03T03:34:58.012Z,10.58
2018-08-03T03:37:25.194Z,10.65
2018-08-03T03:39:52.609Z,10.90
2018-08-03T03:42:19.780Z,11.10
2018-08-03T03:44:46.984Z,11.40
2018-08-03T03:47:14.173Z,12.93
2018-08-03T03:49:41.343Z,11.63
2018-08-03T03:52:08.574Z,11.20
2018-08-03T03:54:35.744Z,11.10
2018-08-03T03:57:02.931Z,12.03
2018-08-03T03:59:30.147Z,12.18
2018-08-03T04:01:57.325Z,11.80
2018-08-03T04:04:24.633Z,13.30
2018-08-03T04:06:51.821Z,11.55
2018-08-03T04:09:18.995Z,11.05
2018-08-03T04:11:46.171Z,11.60
2018-08-03T04:14:13.353Z,10.85
2018-08-03T04:16:40.529Z,11.97
2018-08-03T04:19:07.863Z,12.05
2018-08-03T04:21:35.040Z,12.00
2018-08-03T04:24:02.277Z,11.40
2018-08-03T04:26:29.468Z,11.43
2018-08-03T04:28:56.769Z,12.55
2018-08-03T04:31:23.939Z,11.85
2018-08-03T04:33:51.136Z,12.50
2018-08-03T04:36:18.356Z,12.03
2018-08-03T04:38:45.544Z,11.53
2018-08-03T04:41:12.755Z,11.00
2018-08-03T04:43:39.917Z,11.48
2018-08-03T04:46:07.096Z,12.13
2018-08-03T04:48:34.291Z,10.00
2018-08-03T04:51:01.589Z,11.05
2018-08-03T04:53:28.817Z,12.13
2018-08-03T04:55:56.008Z,11.83
2018-08-03T04:58:23.205Z,11.68
2018-08-03T05:00:50.390Z,11.20
2018-08-03T05:03:17.574Z,11.15
2018-08-03T05:05:44.765Z,10.88
2018-08-03T05:08:11.938Z,10.40
2018-08-03T05:10:39.104Z,10.03
2018-08-03T05:13:06.324Z,11.63
2018-08-03T05:15:33.741Z,11.80
2018-08-03T05:18:00.900Z,10.40
2018-08-03T05:20:28.091Z,10.60
2018-08-03T05:22:55.243Z,11.78
2018-08-03T05:25:22.434Z,11.05
2018-08-03T05:27:49.605Z,11.28
2018-08-03T05:30:16.800Z,10.68
2018-08-03T05:32:44.013Z,10.85
2018-08-03T05:35:11.193Z,11.20
2018-08-03T05:37:38.455Z,10.32
2018-08-03T05:40:05.809Z,9.98
2018-08-03T05:42:33.219Z,9.38
2018-08-03T05:45:00.630Z,10.53
2018-08-03T05:47:27.813Z,10.55
2018-08-03T05:49:54.972Z,10.15
2018-08-03T05:52:22.184Z,11.75
2018-08-03T05:54:49.368Z,11.45
2018-08-03T05:57:16.616Z,11.53
2018-08-03T05:59:43.873Z,9.93
2018-08-03T06:02:11.095Z,10.28
2018-08-03T06:04:38.283Z,10.45
2018-08-03T06:07:05.500Z,9.08
2018-08-03T06:09:32.750Z,10.88
2018-08-03T06:11:59.872Z,9.70
2018-08-03T06:14:27.064Z,9.58
2018-08-03T06:16:54.264Z,10.25
2018-08-03T06:19:21.437Z,9.68
2018-08-03T06:21:48.631Z,10.05
2018-08-03T06:24:15.804Z,10.00
2018-08-03T06:26:43.011Z,9.33
2018-08-03T06:29:10.200Z,10.55
2018-08-03T06:31:37.394Z,11.10
2018-08-03T06:34:04.592Z,8.78
2018-08-03T06:36:31.766Z,9.07
2018-08-03T06:38:58.935Z,9.20
2018-08-03T06:41:26.115Z,9.20
2018-08-03T06:43:53.305Z,9.20
2018-08-03T06:46:20.463Z,9.20
2018-08-03T06:48:47.659Z,9.03
2018-08-03T06:51:14.820Z,9.67
2018-08-03T06:53:42.019Z,8.53
2018-08-03T06:56:09.192Z,9.07
2018-08-03T06:58:36.403Z,8.20
2018-08-03T07:01:03.562Z,8.80
2018-08-03T07:03:30.727Z,9.27
2018-08-03T07:05:57.880Z,8.73
2018-08-03T07:08:25.090Z,9.63
2018-08-03T07:10:52.227Z,9.00
2018-08-03T07:13:19.396Z,9.47
2018-08-03T07:15:46.557Z,8.33
2018-08-03T07:18:13.740Z,9.00
2018-08-03T07:20:40.906Z,9.93
2018-08-03T07:23:08.082Z,9.87
2018-08-03T07:25:35.253Z,10.63
2018-08-03T07:28:02.446Z,10.77
2018-08-03T07:30:29.608Z,8.97
2018-08-03T07:32:56.788Z,9.97
2018-08-03T07:35:23.963Z,10.53
2018-08-03T07:37:51.175Z,10.10
2018-08-03T07:40:18.361Z,10.60
2018-08-03T07:42:45.724Z,22.93
2018-08-03T07:45:12.864Z,9.93
2018-08-03T07:47:40.048Z,11.30
2018-08-03T07:50:07.241Z,10.77
2018-08-03T07:52:34.416Z,11.30
2018-08-03T07:55:01.623Z,28.97
2018-08-03T07:57:28.777Z,14.57
2018-08-03T07:59:56.000Z,11.80
2018-08-03T08:02:23.160Z,13.33
2018-08-03T08:04:50.503Z,11.43
2018-08-03T08:07:17.757Z,10.23
2018-08-03T08:09:44.968Z,12.43
2018-08-03T08:12:12.123Z,11.70
2018-08-03T08:14:39.291Z,15.30
2018-08-03T08:17:06.480Z,20.57
2018-08-03T08:19:33.673Z,10.70
2018-08-03T08:22:00.844Z,10.53
2018-08-03T08:24:28.053Z,10.73
2018-08-03T08:26:55.245Z,10.20
2018-08-03T08:29:22.615Z,11.00
2018-08-03T08:31:49.813Z,11.23
2018-08-03T08:34:17.004Z,11.00
2018-08-03T08:36:44.201Z,11.10
2018-08-03T08:39:12.975Z,10.70
2018-08-03T08:41:40.756Z,11.50
2018-08-03T08:44:07.970Z,11.87
2018-08-03T08:46:35.426Z,12.80
2018-08-03T08:49:03.004Z,11.87
2018-08-03T08:51:30.159Z,11.73
2018-08-03T08:53:57.421Z,11.23
2018-08-03T08:56:24.612Z,11.00
2018-08-03T08:58:51.821Z,10.70
2018-08-03T09:01:19.077Z,12.70
2018-08-03T09:03:46.193Z,12.63
2018-08-03T09:06:13.671Z,11.20
2018-08-03T09:08:40.878Z,11.43
2018-08-03T09:11:08.385Z,11.27
2018-08-03T09:13:35.577Z,12.80
2018-08-03T09:16:02.765Z,11.60
2018-08-03T09:18:29.999Z,11.40
2018-08-03T09:20:57.136Z,13.13
2018-08-03T09:23:24.328Z,12.87
2018-08-03T09:25:51.517Z,12.40
2018-08-03T09:28:18.722Z,14.70
2018-08-03T09:30:45.905Z,12.23
2018-08-03T09:33:13.113Z,12.23
2018-08-03T09:35:40.297Z,11.10
2018-08-03T09:38:07.494Z,12.80
2018-08-03T09:40:34.699Z,11.20
2018-08-03T09:43:01.895Z,12.13
2018-08-03T09:45:29.084Z,11.87
2018-08-03T09:47:56.356Z,12.00
2018-08-03T09:50:23.511Z,11.37
2018-08-03T09:52:50.923Z,12.00
2018-08-03T09:55:18.132Z,12.40
2018-08-03T09:57:45.316Z,11.13
2018-08-03T10:00:15.446Z,12.70
2018-08-03T10:02:42.666Z,12.57
2018-08-03T10:05:09.848Z,11.43
2018-08-03T10:07:37.099Z,12.50
2018-08-03T10:10:04.703Z,12.10
2018-08-03T10:12:31.911Z,12.03
2018-08-03T10:14:59.077Z,12.47
2018-08-03T10:17:26.247Z,11.53
2018-08-03T10:19:53.415Z,11.20
2018-08-03T10:22:20.634Z,10.57
2018-08-03T10:24:47.798Z,11.27
2018-08-03T10:27:14.990Z,10.43
2018-08-03T10:29:42.214Z,11.63
2018-08-03T10:32:09.435Z,11.37
2018-08-03T10:34:36.621Z,11.10
2018-08-03T10:37:03.818Z,10.63
2018-08-03T10:39:30.975Z,11.87
2018-08-03T10:41:58.309Z,10.60
2018-08-03T10:44:25.514Z,9.60
2018-08-03T10:46:52.697Z,11.67
2018-08-03T10:49:19.874Z,11.70
2018-08-03T10:51:47.122Z,10.70
2018-08-03T10:54:14.304Z,10.47
2018-08-03T10:56:41.492Z,10.83
2018-08-03T10:59:08.660Z,11.83
2018-08-03T11:01:35.935Z,10.73
2018-08-03T11:04:03.176Z,10.53
2018-08-03T11:06:30.344Z,10.60
2018-08-03T11:08:57.526Z,11.00
2018-08-03T11:11:24.729Z,10.40
2018-08-03T11:13:51.912Z,10.63
2018-08-03T11:16:19.089Z,10.10
2018-08-03T11:18:46.292Z,10.03
2018-08-03T11:21:13.468Z,10.53
2018-08-03T11:23:40.619Z,9.37
2018-08-03T11:26:07.804Z,11.03
2018-08-03T11:28:34.963Z,10.53
2018-08-03T11:31:02.137Z,11.57
2018-08-03T11:33:29.327Z,11.20
2018-08-03T11:35:56.496Z,10.20
2018-08-03T11:38:23.668Z,9.63
2018-08-03T11:40:50.988Z,9.97
2018-08-03T11:43:18.153Z,10.40
2018-08-03T11:45:45.329Z,8.90
2018-08-03T11:48:12.525Z,10.20
2018-08-03T11:50:39.687Z,9.10
2018-08-03T11:53:06.863Z,8.60
2018-08-03T11:55:34.047Z,9.30
2018-08-03T11:58:01.232Z,8.63
2018-08-03T12:00:28.576Z,9.67
2018-08-03T12:02:56.047Z,10.77
2018-08-03T12:05:23.375Z,8.20
2018-08-03T12:07:50.653Z,9.47
2018-08-03T12:10:17.823Z,8.80
2018-08-03T12:12:45.005Z,8.13
2018-08-03T12:15:12.184Z,8.30
2018-08-03T12:17:39.351Z,8.00
2018-08-03T12:20:06.519Z,7.00
2018-08-03T12:22:33.696Z,7.03
2018-08-03T12:25:00.865Z,7.30
2018-08-03T12:27:28.041Z,6.77
2018-08-03T12:29:55.215Z,7.30
2018-08-03T12:32:22.409Z,7.03
2018-08-03T12:34:49.581Z,6.67
2018-08-03T12:37:16.754Z,6.80
2018-08-03T12:39:43.957Z,7.37
2018-08-03T12:42:11.125Z,6.60
2018-08-03T12:44:38.298Z,6.93
2018-08-03T12:47:05.520Z,6.70
2018-08-03T12:49:32.703Z,6.60
2018-08-03T12:51:59.888Z,6.80
2018-08-03T12:54:27.069Z,6.57
2018-08-03T12:56:54.245Z,7.60
2018-08-03T12:59:21.417Z,7.47
2018-08-03T13:01:48.895Z,6.80
2018-08-03T13:04:16.091Z,7.00
2018-08-03T13:06:43.264Z,6.80
2018-08-03T13:09:10.501Z,6.93
2018-08-03T13:11:38.651Z,7.37
2018-08-03T13:14:05.825Z,7.20
2018-08-03T13:16:33.081Z,6.83
2018-08-03T13:19:00.260Z,7.50
2018-08-03T13:21:34.872Z,7.60
2018-08-03T13:24:02.426Z,7.30
2018-08-03T13:26:29.602Z,8.37
2018-08-03T13:28:57.607Z,7.00
2018-08-03T13:31:25.922Z,8.67
2018-08-03T13:33:53.105Z,7.70
2018-08-03T13:36:20.885Z,7.10
2018-08-03T13:38:48.016Z,6.53
2018-08-03T13:41:16.062Z,6.83
2018-08-03T13:43:43.401Z,7.60
2018-08-03T13:46:10.580Z,6.23
2018-08-03T13:48:37.740Z,5.90
2018-08-03T13:51:05.066Z,6.30
2018-08-03T13:53:32.326Z,6.10
2018-08-03T13:55:59.495Z,6.00
2018-08-03T13:58:26.808Z,6.10
2018-08-03T14:00:59.764Z,6.13
2018-08-03T14:03:26.937Z,6.57
2018-08-03T14:05:54.109Z,6.10
2018-08-03T14:08:21.285Z,6.30
2018-08-03T14:10:48.464Z,4.80
2018-08-03T14:13:15.657Z,5.37
2018-08-03T14:15:42.853Z,5.77
2018-08-03T14:18:10.035Z,6.23
2018-08-03T14:20:37.231Z,5.83
2018-08-03T14:23:04.445Z,5.30
2018-08-03T14:25:31.657Z,5.50
2018-08-03T14:27:58.824Z,5.80
2018-08-03T14:30:26.123Z,5.57
2018-08-03T14:32:53.304Z,6.20
2018-08-03T14:35:20.479Z,5.53
2018-08-03T14:37:47.672Z,5.47
2018-08-03T14:40:14.888Z,5.70
2018-08-03T14:42:42.058Z,6.10
2018-08-03T14:45:09.253Z,5.90
2018-08-03T14:47:36.435Z,6.20
2018-08-03T14:50:03.826Z,5.70
2018-08-03T14:52:31.030Z,5.13
2018-08-03T14:54:58.232Z,5.10
2018-08-03T14:57:25.431Z,5.67
2018-08-03T14:59:52.610Z,5.77
2018-08-03T15:02:19.804Z,6.30
2018-08-03T15:04:46.992Z,5.37
2018-08-03T15:07:14.177Z,5.50
2018-08-03T15:09:41.365Z,6.07
2018-08-03T15:12:08.543Z,5.70
2018-08-03T15:14:35.733Z,5.33
2018-08-03T15:17:02.896Z,5.17
2018-08-03T15:19:30.171Z,5.53
2018-08-03T15:21:57.344Z,6.00
2018-08-03T15:24:24.515Z,5.63
2018-08-03T15:26:51.696Z,5.77
2018-08-03T15:29:18.864Z,6.13
2018-08-03T15:31:46.029Z,5.83
2018-08-03T15:34:13.201Z,6.07
2018-08-03T15:36:40.380Z,5.80
2018-08-03T15:39:08.368Z,5.60
2018-08-03T15:41:35.549Z,6.20
2018-08-03T15:44:02.727Z,6.00
2018-08-03T15:46:29.953Z,6.77
2018-08-03T15:48:57.109Z,5.90
2018-08-03T15:51:24.309Z,4.90
2018-08-03T15:53:51.495Z,5.50
2018-08-03T15:56:18.683Z,5.00
2018-08-03T15:58:45.929Z,5.60
2018-08-03T16:01:13.073Z,5.30
2018-08-03T16:03:40.244Z,5.60
2018-08-03T16:06:07.416Z,5.43
2018-08-03T16:08:34.592Z,4.93
2018-08-03T16:11:01.788Z,5.43
2018-08-03T16:13:29.020Z,5.23
2018-08-03T16:15:56.171Z,4.90
2018-08-03T16:18:23.374Z,5.20
2018-08-03T16:20:50.543Z,6.17
2018-08-03T16:23:17.727Z,5.27
2018-08-03T16:25:44.911Z,5.17
2018-08-03T16:28:12.091Z,5.93
2018-08-03T16:30:39.335Z,5.97
2018-08-03T16:33:06.531Z,6.00
2018-08-03T16:35:33.765Z,6.10
2018-08-03T16:38:00.925Z,6.60
2018-08-03T16:40:28.152Z,6.83
2018-08-03T16:42:55.315Z,6.87
2018-08-03T16:45:22.494Z,7.33
2018-08-03T16:47:49.663Z,7.50
2018-08-03T16:50:16.836Z,6.57
2018-08-03T16:52:44.013Z,7.40
2018-08-03T16:55:11.183Z,7.40
2018-08-03T16:57:38.413Z,7.33
2018-08-03T17:00:06.056Z,7.60
2018-08-03T17:02:33.245Z,7.80
2018-08-03T17:05:00.593Z,7.70
2018-08-03T17:07:27.768Z,7.83
2018-08-03T17:09:54.968Z,8.20
2018-08-03T17:12:22.146Z,7.73
2018-08-03T17:14:49.315Z,7.67
2018-08-03T17:17:16.502Z,7.20
2018-08-03T17:19:43.714Z,7.83
2018-08-03T17:22:11.114Z,9.20
2018-08-03T17:24:38.360Z,8.43
2018-08-03T17:27:05.524Z,8.63
2018-08-03T17:29:32.721Z,9.50
2018-08-03T17:31:59.902Z,10.70
2018-08-03T17:34:27.120Z,10.67
2018-08-03T17:36:54.412Z,10.63
2018-08-03T17:39:21.536Z,9.80
2018-08-03T17:41:48.708Z,11.10
2018-08-03T17:44:15.957Z,9.93
2018-08-03T17:46:43.157Z,11.77
2018-08-03T17:49:10.318Z,11.47
2018-08-03T17:51:37.541Z,10.60
2018-08-03T17:54:04.728Z,11.13
2018-08-03T17:56:31.909Z,11.57
2018-08-03T17:58:59.097Z,10.93
2018-08-03T18:01:26.272Z,9.90
2018-08-03T18:03:53.459Z,11.30
2018-08-03T18:06:21.019Z,10.80
2018-08-03T18:08:48.197Z,12.30
2018-08-03T18:11:15.388Z,11.30
2018-08-03T18:13:42.593Z,10.97
2018-08-03T18:16:10.336Z,11.87
2018-08-03T18:18:37.508Z,11.50
2018-08-03T18:21:04.702Z,9.70
2018-08-03T18:23:31.887Z,10.27
2018-08-03T18:25:59.072Z,10.33
2018-08-03T18:28:26.497Z,11.53
2018-08-03T18:30:53.684Z,10.70
2018-08-03T18:33:20.861Z,12.30
2018-08-03T18:35:48.056Z,10.43
2018-08-03T18:38:15.245Z,10.60
2018-08-03T18:40:42.415Z,11.77
2018-08-03T18:43:09.573Z,9.97
2018-08-03T18:45:36.780Z,10.50
2018-08-03T18:48:03.943Z,10.80
2018-08-03T18:50:31.111Z,10.90
2018-08-03T18:52:58.325Z,11.53
2018-08-03T18:55:25.517Z,12.60
2018-08-03T18:57:52.699Z,11.57
2018-08-03T19:00:19.877Z,12.40
2018-08-03T19:02:47.052Z,12.47
2018-08-03T19:05:14.289Z,11.90
2018-08-03T19:07:41.510Z,12.77
2018-08-03T19:10:08.739Z,11.33
2018-08-03T19:12:35.877Z,10.77
2018-08-03T19:15:03.056Z,11.70
2018-08-03T19:17:30.360Z,12.80
2018-08-03T19:19:57.579Z,11.20
2018-08-03T19:22:24.753Z,13.50
2018-08-03T19:24:51.958Z,13.37
2018-08-03T19:27:19.120Z,13.50
2018-08-03T19:29:46.299Z,12.73
2018-08-03T19:32:13.501Z,12.93
2018-08-03T19:34:40.848Z,11.80
2018-08-03T19:37:08.029Z,12.23
2018-08-03T19:39:35.227Z,12.90
2018-08-03T19:42:02.404Z,11.70
2018-08-03T19:44:29.598Z,12.23
2018-08-03T19:46:56.827Z,12.53
2018-08-03T19:51:57.705Z,11.07
2018-08-03T19:54:24.874Z,12.80
2018-08-03T19:56:52.188Z,12.70
2018-08-03T19:59:19.411Z,12.97
2018-08-03T20:01:46.600Z,14.20
2018-08-03T20:04:13.777Z,12.70
2018-08-03T20:06:41.011Z,13.50
2018-08-03T20:09:09.540Z,12.90
2018-08-03T20:11:36.731Z,12.77
2018-08-03T20:14:03.930Z,12.57
2018-08-03T20:16:31.109Z,12.47
2018-08-03T20:18:58.314Z,12.70
2018-08-03T20:21:25.497Z,13.70
2018-08-03T20:23:52.690Z,13.03
2018-08-03T20:26:19.880Z,12.33
2018-08-03T20:28:47.056Z,12.30
2018-08-03T20:31:14.256Z,11.83
2018-08-03T20:33:41.424Z,11.80
2018-08-03T20:36:08.663Z,13.30
2018-08-03T20:38:35.856Z,12.40
2018-08-03T20:41:03.031Z,12.97
2018-08-03T20:43:30.233Z,10.70
2018-08-03T20:45:57.453Z,12.13
2018-08-03T20:48:24.621Z,11.00
2018-08-03T20:50:51.825Z,11.90
2018-08-03T20:53:18.998Z,12.03
2018-08-03T20:55:46.209Z,11.83
2018-08-03T20:58:13.396Z,12.13
2018-08-03T21:00:40.597Z,10.53
2018-08-03T21:03:07.788Z,11.10
2018-08-03T21:05:35.013Z,11.10
2018-08-03T21:08:02.192Z,11.67
2018-08-03T21:10:29.375Z,12.13
2018-08-03T21:12:56.585Z,12.33
2018-08-03T21:15:23.789Z,11.73
2018-08-03T21:17:50.973Z,11.80
2018-08-03T21:20:18.165Z,11.87
2018-08-03T21:22:45.345Z,12.73
2018-08-03T21:25:12.517Z,11.10
2018-08-03T21:27:39.704Z,10.63
2018-08-03T21:30:07.740Z,10.93
2018-08-03T21:32:34.897Z,11.03
2018-08-03T21:35:02.452Z,13.20
2018-08-03T21:37:29.657Z,12.43
2018-08-03T21:39:56.900Z,12.47
2018-08-03T21:42:24.068Z,12.50
2018-08-03T21:44:51.256Z,13.13
2018-08-03T21:47:18.452Z,12.77
2018-08-03T21:49:45.656Z,12.00
2018-08-03T21:52:12.839Z,12.43
2018-08-03T21:54:40.009Z,10.60
2018-08-03T21:57:07.210Z,11.50
2018-08-03T21:59:34.383Z,11.97
2018-08-03T22:02:01.565Z,10.13
2018-08-03T22:04:28.741Z,12.13
2018-08-03T22:06:55.912Z,13.87
2018-08-03T22:09:23.080Z,12.50
2018-08-03T22:11:50.255Z,12.03
2018-08-03T22:14:17.467Z,11.90
2018-08-03T22:16:44.641Z,11.33
2018-08-03T22:19:11.828Z,13.13
2018-08-03T22:21:38.999Z,13.17
2018-08-03T22:24:06.204Z,13.03
2018-08-03T22:26:33.383Z,11.93
2018-08-03T22:29:00.565Z,12.60
2018-08-03T22:31:27.839Z,12.97
2018-08-03T22:33:55.018Z,12.93
2018-08-03T22:36:22.184Z,12.70
2018-08-03T22:38:49.336Z,13.20
2018-08-03T22:41:16.526Z,13.67
2018-08-03T22:43:43.708Z,13.30
2018-08-03T22:46:10.884Z,13.87
2018-08-03T22:48:38.088Z,14.75
2018-08-03T22:51:05.271Z,12.60
2018-08-03T22:53:32.435Z,14.33
2018-08-03T22:55:59.633Z,12.73
2018-08-03T22:58:26.811Z,12.50
2018-08-03T23:00:54.016Z,14.75
2018-08-03T23:03:21.155Z,13.93
2018-08-03T23:05:48.362Z,12.70
2018-08-03T23:08:15.628Z,14.67
2018-08-03T23:10:42.716Z,12.97
2018-08-03T23:13:09.894Z,13.83
2018-08-03T23:15:37.089Z,14.80
2018-08-03T23:18:04.456Z,14.50
2018-08-03T23:20:31.738Z,15.00
2018-08-03T23:22:58.924Z,14.40
2018-08-03T23:25:26.114Z,13.80
2018-08-03T23:27:53.352Z,13.32
2018-08-03T23:30:20.549Z,14.73
2018-08-03T23:32:47.771Z,14.25
2018-08-03T23:35:14.959Z,14.43
2018-08-03T23:37:42.157Z,14.33
2018-08-03T23:40:09.333Z,13.80
2018-08-03T23:42:36.804Z,15.32
2018-08-03T23:45:04.134Z,16.12
2018-08-03T23:47:31.362Z,17.50
2018-08-03T23:49:58.704Z,16.52
2018-08-03T23:52:25.880Z,16.60
2018-08-03T23:54:53.109Z,16.80
2018-08-03T23:57:20.408Z,17.17
2018-08-03T23:59:47.581Z,16.23
